sensor_id;sensor_type;location;lat;lon;timestamp;P1;durP1;ratioP1;P2;durP2;ratioP2
4377;SDS011;2203;53.686;9.994;2023-03-24T00:00:41;9.13;;;5.40;;
4377;SDS011;2203;53.686;9.994;2023-03-24T00:03:06;15.67;;;5.60;;
4377;SDS011;2203;53.686;9.994;2023-03-24T00:05:32;11.50;;;4.60;;
4377;SDS011;2203;53.686;9.994;2023-03-24T00:07:58;9.70;;;4.70;;
4377;SDS011;2203;53.686;9.994;2023-03-24T00:10:24;7.17;;;3.90;;
4377;SDS011;2203;53.686;9.994;2023-03-24T00:12:50;13.10;;;6.07;;
4377;SDS011;2203;53.686;9.994;2023-03-24T00:15:17;7.63;;;4.77;;
4377;SDS011;2203;53.686;9.994;2023-03-24T00:17:44;17.23;;;5.63;;
4377;SDS011;2203;53.686;9.994;2023-03-24T00:20:12;8.27;;;4.50;;
4377;SDS011;2203;53.686;9.994;2023-03-24T00:22:39;9.83;;;4.70;;
4377;SDS011;2203;53.686;9.994;2023-03-24T00:25:12;16.47;;;5.40;;
4377;SDS011;2203;53.686;9.994;2023-03-24T00:27:39;16.13;;;4.80;;
4377;SDS011;2203;53.686;9.994;2023-03-24T00:30:05;12.00;;;5.03;;
4377;SDS011;2203;53.686;9.994;2023-03-24T00:32:32;14.20;;;5.40;;
4377;SDS011;2203;53.686;9.994;2023-03-24T00:35:00;15.70;;;4.70;;
4377;SDS011;2203;53.686;9.994;2023-03-24T00:37:27;10.80;;;4.33;;
4377;SDS011;2203;53.686;9.994;2023-03-24T00:39:52;8.83;;;5.07;;
4377;SDS011;2203;53.686;9.994;2023-03-24T00:42:18;14.23;;;3.83;;
4377;SDS011;2203;53.686;9.994;2023-03-24T00:44:43;7.87;;;3.97;;
4377;SDS011;2203;53.686;9.994;2023-03-24T00:47:09;6.83;;;3.30;;
4377;SDS011;2203;53.686;9.994;2023-03-24T00:49:35;10.53;;;4.00;;
4377;SDS011;2203;53.686;9.994;2023-03-24T00:54:36;8.20;;;3.60;;
4377;SDS011;2203;53.686;9.994;2023-03-24T00:57:03;7.67;;;3.17;;
4377;SDS011;2203;53.686;9.994;2023-03-24T00:59:30;13.53;;;4.50;;
4377;SDS011;2203;53.686;9.994;2023-03-24T01:01:56;15.50;;;3.97;;
4377;SDS011;2203;53.686;9.994;2023-03-24T01:04:21;9.43;;;3.87;;
4377;SDS011;2203;53.686;9.994;2023-03-24T01:06:50;16.80;;;3.87;;
4377;SDS011;2203;53.686;9.994;2023-03-24T01:09:18;6.57;;;3.23;;
4377;SDS011;2203;53.686;9.994;2023-03-24T01:11:45;14.47;;;3.50;;
4377;SDS011;2203;53.686;9.994;2023-03-24T01:14:12;10.00;;;3.57;;
4377;SDS011;2203;53.686;9.994;2023-03-24T01:16:37;8.97;;;3.50;;
4377;SDS011;2203;53.686;9.994;2023-03-24T01:19:03;5.50;;;2.93;;
4377;SDS011;2203;53.686;9.994;2023-03-24T01:21:29;11.13;;;3.33;;
4377;SDS011;2203;53.686;9.994;2023-03-24T01:23:55;11.83;;;3.90;;
4377;SDS011;2203;53.686;9.994;2023-03-24T01:26:22;6.27;;;3.50;;
4377;SDS011;2203;53.686;9.994;2023-03-24T01:28:47;7.07;;;3.13;;
4377;SDS011;2203;53.686;9.994;2023-03-24T01:31:13;9.57;;;2.93;;
4377;SDS011;2203;53.686;9.994;2023-03-24T01:33:38;16.73;;;3.77;;
4377;SDS011;2203;53.686;9.994;2023-03-24T01:36:05;8.40;;;3.43;;
4377;SDS011;2203;53.686;9.994;2023-03-24T01:38:31;11.83;;;3.63;;
4377;SDS011;2203;53.686;9.994;2023-03-24T01:40:56;15.43;;;3.40;;
4377;SDS011;2203;53.686;9.994;2023-03-24T01:43:23;15.63;;;4.13;;
4377;SDS011;2203;53.686;9.994;2023-03-24T01:49:04;15.00;;;3.60;;
4377;SDS011;2203;53.686;9.994;2023-03-24T01:51:35;7.43;;;2.73;;
4377;SDS011;2203;53.686;9.994;2023-03-24T01:54:04;16.03;;;3.10;;
4377;SDS011;2203;53.686;9.994;2023-03-24T01:56:34;11.33;;;3.30;;
4377;SDS011;2203;53.686;9.994;2023-03-24T01:59:04;7.00;;;3.50;;
4377;SDS011;2203;53.686;9.994;2023-03-24T02:01:32;11.40;;;3.10;;
4377;SDS011;2203;53.686;9.994;2023-03-24T02:03:58;7.17;;;3.20;;
4377;SDS011;2203;53.686;9.994;2023-03-24T02:06:27;10.37;;;3.07;;
4377;SDS011;2203;53.686;9.994;2023-03-24T02:08:54;11.13;;;3.43;;
4377;SDS011;2203;53.686;9.994;2023-03-24T02:11:22;9.57;;;3.50;;
4377;SDS011;2203;53.686;9.994;2023-03-24T02:13:49;5.67;;;2.80;;
4377;SDS011;2203;53.686;9.994;2023-03-24T02:16:18;10.43;;;3.37;;
4377;SDS011;2203;53.686;9.994;2023-03-24T02:30:22;7.40;;;2.80;;
4377;SDS011;2203;53.686;9.994;2023-03-24T02:35:46;8.80;;;3.30;;
4377;SDS011;2203;53.686;9.994;2023-03-24T02:46:23;7.40;;;3.23;;
4377;SDS011;2203;53.686;9.994;2023-03-24T02:49:21;9.77;;;3.33;;
4377;SDS011;2203;53.686;9.994;2023-03-24T03:02:02;11.83;;;3.57;;
4377;SDS011;2203;53.686;9.994;2023-03-24T03:04:39;10.20;;;3.27;;
4377;SDS011;2203;53.686;9.994;2023-03-24T03:07:10;13.90;;;3.67;;
4377;SDS011;2203;53.686;9.994;2023-03-24T03:09:38;10.43;;;3.27;;
4377;SDS011;2203;53.686;9.994;2023-03-24T03:12:06;9.27;;;3.70;;
4377;SDS011;2203;53.686;9.994;2023-03-24T03:14:37;12.10;;;4.30;;
4377;SDS011;2203;53.686;9.994;2023-03-24T03:17:19;10.60;;;3.63;;
4377;SDS011;2203;53.686;9.994;2023-03-24T03:19:57;7.90;;;3.60;;
4377;SDS011;2203;53.686;9.994;2023-03-24T03:22:33;9.80;;;3.20;;
4377;SDS011;2203;53.686;9.994;2023-03-24T03:25:03;9.73;;;4.10;;
4377;SDS011;2203;53.686;9.994;2023-03-24T03:27:29;9.97;;;3.10;;
4377;SDS011;2203;53.686;9.994;2023-03-24T03:30:07;7.00;;;3.00;;
4377;SDS011;2203;53.686;9.994;2023-03-24T03:32:36;12.53;;;4.00;;
4377;SDS011;2203;53.686;9.994;2023-03-24T03:35:09;10.30;;;4.00;;
4377;SDS011;2203;53.686;9.994;2023-03-24T03:40:12;10.50;;;3.20;;
4377;SDS011;2203;53.686;9.994;2023-03-24T03:42:41;7.30;;;2.80;;
4377;SDS011;2203;53.686;9.994;2023-03-24T03:45:07;7.37;;;3.40;;
4377;SDS011;2203;53.686;9.994;2023-03-24T03:47:34;5.47;;;3.17;;
4377;SDS011;2203;53.686;9.994;2023-03-24T03:50:00;9.63;;;4.07;;
4377;SDS011;2203;53.686;9.994;2023-03-24T03:52:26;7.80;;;3.17;;
4377;SDS011;2203;53.686;9.994;2023-03-24T03:54:51;10.53;;;3.77;;
4377;SDS011;2203;53.686;9.994;2023-03-24T03:57:17;8.03;;;3.10;;
4377;SDS011;2203;53.686;9.994;2023-03-24T03:59:43;7.40;;;3.27;;
4377;SDS011;2203;53.686;9.994;2023-03-24T04:04:54;4.57;;;3.00;;
4377;SDS011;2203;53.686;9.994;2023-03-24T04:10:23;7.73;;;3.50;;
4377;SDS011;2203;53.686;9.994;2023-03-24T04:12:58;8.90;;;3.43;;
4377;SDS011;2203;53.686;9.994;2023-03-24T04:15:38;5.30;;;3.63;;
4377;SDS011;2203;53.686;9.994;2023-03-24T04:21:25;7.10;;;2.93;;
4377;SDS011;2203;53.686;9.994;2023-03-24T04:31:56;8.07;;;3.90;;
4377;SDS011;2203;53.686;9.994;2023-03-24T04:34:34;6.87;;;3.77;;
4377;SDS011;2203;53.686;9.994;2023-03-24T04:39:32;6.10;;;3.43;;
4377;SDS011;2203;53.686;9.994;2023-03-24T04:42:04;7.60;;;3.20;;
4377;SDS011;2203;53.686;9.994;2023-03-24T04:44:34;7.77;;;3.33;;
4377;SDS011;2203;53.686;9.994;2023-03-24T04:47:00;8.40;;;3.43;;
4377;SDS011;2203;53.686;9.994;2023-03-24T04:49:27;7.87;;;3.90;;
4377;SDS011;2203;53.686;9.994;2023-03-24T04:51:52;6.17;;;3.87;;
4377;SDS011;2203;53.686;9.994;2023-03-24T04:54:19;6.53;;;3.40;;
4377;SDS011;2203;53.686;9.994;2023-03-24T04:56:45;5.40;;;2.90;;
4377;SDS011;2203;53.686;9.994;2023-03-24T04:59:13;7.80;;;3.70;;
4377;SDS011;2203;53.686;9.994;2023-03-24T05:01:39;3.77;;;2.77;;
4377;SDS011;2203;53.686;9.994;2023-03-24T05:04:05;4.73;;;2.53;;
4377;SDS011;2203;53.686;9.994;2023-03-24T05:06:31;5.80;;;2.57;;
4377;SDS011;2203;53.686;9.994;2023-03-24T05:08:57;8.47;;;2.83;;
4377;SDS011;2203;53.686;9.994;2023-03-24T05:11:23;6.20;;;3.00;;
4377;SDS011;2203;53.686;9.994;2023-03-24T05:13:50;4.93;;;2.97;;
4377;SDS011;2203;53.686;9.994;2023-03-24T05:16:16;8.07;;;4.03;;
4377;SDS011;2203;53.686;9.994;2023-03-24T05:18:41;6.10;;;3.37;;
4377;SDS011;2203;53.686;9.994;2023-03-24T05:21:07;12.80;;;3.57;;
4377;SDS011;2203;53.686;9.994;2023-03-24T05:23:32;4.40;;;2.70;;
4377;SDS011;2203;53.686;9.994;2023-03-24T05:25:57;5.20;;;2.97;;
4377;SDS011;2203;53.686;9.994;2023-03-24T05:28:23;8.17;;;3.60;;
4377;SDS011;2203;53.686;9.994;2023-03-24T05:30:48;5.93;;;3.50;;
4377;SDS011;2203;53.686;9.994;2023-03-24T05:33:14;5.00;;;3.37;;
4377;SDS011;2203;53.686;9.994;2023-03-24T05:35:39;4.53;;;3.17;;
4377;SDS011;2203;53.686;9.994;2023-03-24T05:38:05;9.70;;;3.03;;
4377;SDS011;2203;53.686;9.994;2023-03-24T05:40:30;4.20;;;2.97;;
4377;SDS011;2203;53.686;9.994;2023-03-24T05:42:55;5.70;;;3.20;;
4377;SDS011;2203;53.686;9.994;2023-03-24T05:45:21;8.33;;;3.60;;
4377;SDS011;2203;53.686;9.994;2023-03-24T05:47:46;6.33;;;3.83;;
4377;SDS011;2203;53.686;9.994;2023-03-24T05:50:12;3.73;;;2.97;;
4377;SDS011;2203;53.686;9.994;2023-03-24T05:52:38;6.43;;;2.97;;
4377;SDS011;2203;53.686;9.994;2023-03-24T05:55:03;8.17;;;3.30;;
4377;SDS011;2203;53.686;9.994;2023-03-24T05:57:29;5.27;;;3.30;;
4377;SDS011;2203;53.686;9.994;2023-03-24T05:59:55;5.97;;;3.30;;
4377;SDS011;2203;53.686;9.994;2023-03-24T06:02:21;6.63;;;2.90;;
4377;SDS011;2203;53.686;9.994;2023-03-24T06:04:47;3.90;;;3.23;;
4377;SDS011;2203;53.686;9.994;2023-03-24T06:07:15;4.93;;;2.70;;
4377;SDS011;2203;53.686;9.994;2023-03-24T06:09:40;7.40;;;3.40;;
4377;SDS011;2203;53.686;9.994;2023-03-24T06:12:06;5.40;;;3.20;;
4377;SDS011;2203;53.686;9.994;2023-03-24T06:14:33;4.53;;;3.07;;
4377;SDS011;2203;53.686;9.994;2023-03-24T06:16:58;5.10;;;3.00;;
4377;SDS011;2203;53.686;9.994;2023-03-24T06:19:24;3.30;;;3.00;;
4377;SDS011;2203;53.686;9.994;2023-03-24T06:21:51;6.70;;;3.17;;
4377;SDS011;2203;53.686;9.994;2023-03-24T06:24:18;3.60;;;3.00;;
4377;SDS011;2203;53.686;9.994;2023-03-24T06:26:44;7.10;;;3.33;;
4377;SDS011;2203;53.686;9.994;2023-03-24T06:29:10;3.30;;;2.90;;
4377;SDS011;2203;53.686;9.994;2023-03-24T06:31:36;6.33;;;2.70;;
4377;SDS011;2203;53.686;9.994;2023-03-24T06:34:05;3.00;;;2.43;;
4377;SDS011;2203;53.686;9.994;2023-03-24T06:36:31;3.43;;;2.77;;
4377;SDS011;2203;53.686;9.994;2023-03-24T06:38:58;6.27;;;3.00;;
4377;SDS011;2203;53.686;9.994;2023-03-24T06:41:24;10.73;;;3.23;;
4377;SDS011;2203;53.686;9.994;2023-03-24T06:43:50;4.60;;;2.80;;
4377;SDS011;2203;53.686;9.994;2023-03-24T06:46:15;7.73;;;3.13;;
4377;SDS011;2203;53.686;9.994;2023-03-24T06:48:40;4.80;;;2.20;;
4377;SDS011;2203;53.686;9.994;2023-03-24T06:51:06;3.43;;;2.50;;
4377;SDS011;2203;53.686;9.994;2023-03-24T06:53:31;4.17;;;2.80;;
4377;SDS011;2203;53.686;9.994;2023-03-24T06:55:57;3.87;;;2.33;;
4377;SDS011;2203;53.686;9.994;2023-03-24T06:58:22;4.80;;;2.40;;
4377;SDS011;2203;53.686;9.994;2023-03-24T07:00:48;3.00;;;1.93;;
4377;SDS011;2203;53.686;9.994;2023-03-24T07:03:14;7.60;;;2.73;;
4377;SDS011;2203;53.686;9.994;2023-03-24T07:05:41;3.60;;;2.47;;
4377;SDS011;2203;53.686;9.994;2023-03-24T07:08:07;6.00;;;2.33;;
4377;SDS011;2203;53.686;9.994;2023-03-24T07:10:34;2.50;;;2.30;;
4377;SDS011;2203;53.686;9.994;2023-03-24T07:13:00;3.03;;;1.90;;
4377;SDS011;2203;53.686;9.994;2023-03-24T07:15:27;5.37;;;2.27;;
4377;SDS011;2203;53.686;9.994;2023-03-24T07:17:53;2.30;;;1.50;;
4377;SDS011;2203;53.686;9.994;2023-03-24T07:20:18;3.17;;;1.50;;
4377;SDS011;2203;53.686;9.994;2023-03-24T07:22:44;2.73;;;1.70;;
4377;SDS011;2203;53.686;9.994;2023-03-24T07:25:09;3.50;;;1.10;;
4377;SDS011;2203;53.686;9.994;2023-03-24T07:27:38;2.60;;;1.40;;
4377;SDS011;2203;53.686;9.994;2023-03-24T07:30:04;1.80;;;1.00;;
4377;SDS011;2203;53.686;9.994;2023-03-24T07:32:31;4.30;;;1.80;;
4377;SDS011;2203;53.686;9.994;2023-03-24T07:34:58;3.20;;;1.40;;
4377;SDS011;2203;53.686;9.994;2023-03-24T07:37:25;5.33;;;1.57;;
4377;SDS011;2203;53.686;9.994;2023-03-24T07:39:50;2.93;;;1.40;;
4377;SDS011;2203;53.686;9.994;2023-03-24T07:42:16;6.63;;;2.80;;
4377;SDS011;2203;53.686;9.994;2023-03-24T07:44:41;2.40;;;1.63;;
4377;SDS011;2203;53.686;9.994;2023-03-24T07:47:06;6.07;;;1.87;;
4377;SDS011;2203;53.686;9.994;2023-03-24T07:49:32;2.47;;;1.43;;
4377;SDS011;2203;53.686;9.994;2023-03-24T07:51:57;8.60;;;1.80;;
4377;SDS011;2203;53.686;9.994;2023-03-24T07:54:23;3.33;;;1.20;;
4377;SDS011;2203;53.686;9.994;2023-03-24T07:56:49;4.67;;;1.37;;
4377;SDS011;2203;53.686;9.994;2023-03-24T07:59:14;8.53;;;1.47;;
4377;SDS011;2203;53.686;9.994;2023-03-24T08:01:41;12.40;;;1.53;;
4377;SDS011;2203;53.686;9.994;2023-03-24T08:04:08;11.43;;;1.97;;
4377;SDS011;2203;53.686;9.994;2023-03-24T08:06:36;3.90;;;1.97;;
4377;SDS011;2203;53.686;9.994;2023-03-24T08:09:01;10.23;;;1.67;;
4377;SDS011;2203;53.686;9.994;2023-03-24T08:11:26;8.27;;;2.03;;
4377;SDS011;2203;53.686;9.994;2023-03-24T08:13:52;13.60;;;1.70;;
4377;SDS011;2203;53.686;9.994;2023-03-24T08:16:17;15.23;;;1.97;;
4377;SDS011;2203;53.686;9.994;2023-03-24T08:18:43;6.27;;;2.13;;
4377;SDS011;2203;53.686;9.994;2023-03-24T08:21:08;23.60;;;2.20;;
4377;SDS011;2203;53.686;9.994;2023-03-24T08:23:33;10.83;;;2.20;;
4377;SDS011;2203;53.686;9.994;2023-03-24T08:26:00;8.27;;;1.87;;
4377;SDS011;2203;53.686;9.994;2023-03-24T08:28:26;14.80;;;2.77;;
4377;SDS011;2203;53.686;9.994;2023-03-24T08:30:52;8.00;;;2.40;;
4377;SDS011;2203;53.686;9.994;2023-03-24T08:33:17;13.90;;;1.80;;
4377;SDS011;2203;53.686;9.994;2023-03-24T08:35:43;16.13;;;2.77;;
4377;SDS011;2203;53.686;9.994;2023-03-24T08:38:10;5.03;;;2.10;;
4377;SDS011;2203;53.686;9.994;2023-03-24T08:40:37;13.73;;;1.97;;
4377;SDS011;2203;53.686;9.994;2023-03-24T08:43:04;6.40;;;1.73;;
4377;SDS011;2203;53.686;9.994;2023-03-24T08:45:32;19.93;;;2.17;;
4377;SDS011;2203;53.686;9.994;2023-03-24T08:48:00;7.57;;;2.00;;
4377;SDS011;2203;53.686;9.994;2023-03-24T08:50:28;9.07;;;2.10;;
4377;SDS011;2203;53.686;9.994;2023-03-24T08:52:55;12.37;;;1.90;;
4377;SDS011;2203;53.686;9.994;2023-03-24T08:55:21;12.47;;;2.13;;
4377;SDS011;2203;53.686;9.994;2023-03-24T08:57:47;15.60;;;2.57;;
4377;SDS011;2203;53.686;9.994;2023-03-24T09:00:13;14.87;;;2.70;;
4377;SDS011;2203;53.686;9.994;2023-03-24T09:02:40;10.73;;;1.87;;
4377;SDS011;2203;53.686;9.994;2023-03-24T09:05:16;14.27;;;2.27;;
4377;SDS011;2203;53.686;9.994;2023-03-24T09:07:43;11.10;;;2.03;;
4377;SDS011;2203;53.686;9.994;2023-03-24T09:10:09;16.00;;;2.53;;
4377;SDS011;2203;53.686;9.994;2023-03-24T09:12:36;14.60;;;2.40;;
4377;SDS011;2203;53.686;9.994;2023-03-24T09:15:02;15.23;;;3.00;;
4377;SDS011;2203;53.686;9.994;2023-03-24T09:17:28;11.23;;;2.50;;
4377;SDS011;2203;53.686;9.994;2023-03-24T09:19:53;12.90;;;2.77;;
4377;SDS011;2203;53.686;9.994;2023-03-24T09:22:19;10.50;;;2.50;;
4377;SDS011;2203;53.686;9.994;2023-03-24T09:24:44;9.97;;;2.00;;
4377;SDS011;2203;53.686;9.994;2023-03-24T09:27:12;16.77;;;2.40;;
4377;SDS011;2203;53.686;9.994;2023-03-24T09:29:38;10.00;;;1.70;;
4377;SDS011;2203;53.686;9.994;2023-03-24T09:32:04;16.57;;;2.50;;
4377;SDS011;2203;53.686;9.994;2023-03-24T09:34:29;11.83;;;2.40;;
4377;SDS011;2203;53.686;9.994;2023-03-24T09:36:56;12.80;;;2.07;;
4377;SDS011;2203;53.686;9.994;2023-03-24T09:39:21;16.73;;;2.20;;
4377;SDS011;2203;53.686;9.994;2023-03-24T09:41:48;17.60;;;2.60;;
4377;SDS011;2203;53.686;9.994;2023-03-24T09:47:37;11.87;;;2.00;;
4377;SDS011;2203;53.686;9.994;2023-03-24T09:49:49;14.33;;;1.90;;
4377;SDS011;2203;53.686;9.994;2023-03-24T09:52:18;13.77;;;2.93;;
4377;SDS011;2203;53.686;9.994;2023-03-24T09:54:53;15.60;;;2.27;;
4377;SDS011;2203;53.686;9.994;2023-03-24T09:57:24;12.37;;;1.90;;
4377;SDS011;2203;53.686;9.994;2023-03-24T09:59:53;15.90;;;1.97;;
4377;SDS011;2203;53.686;9.994;2023-03-24T10:02:19;14.47;;;2.70;;
4377;SDS011;2203;53.686;9.994;2023-03-24T10:04:46;14.43;;;2.60;;
4377;SDS011;2203;53.686;9.994;2023-03-24T10:09:52;14.40;;;1.87;;
4377;SDS011;2203;53.686;9.994;2023-03-24T10:15:05;9.77;;;1.77;;
4377;SDS011;2203;53.686;9.994;2023-03-24T10:17:39;11.93;;;2.23;;
4377;SDS011;2203;53.686;9.994;2023-03-24T10:20:30;8.90;;;1.47;;
4377;SDS011;2203;53.686;9.994;2023-03-24T10:28:58;11.93;;;2.10;;
4377;SDS011;2203;53.686;9.994;2023-03-24T10:31:37;9.10;;;2.00;;
4377;SDS011;2203;53.686;9.994;2023-03-24T10:34:04;10.60;;;2.20;;
4377;SDS011;2203;53.686;9.994;2023-03-24T10:36:30;14.00;;;2.27;;
4377;SDS011;2203;53.686;9.994;2023-03-24T10:38:56;17.93;;;2.07;;
4377;SDS011;2203;53.686;9.994;2023-03-24T10:41:22;25.37;;;3.90;;
4377;SDS011;2203;53.686;9.994;2023-03-24T10:43:49;8.23;;;2.03;;
4377;SDS011;2203;53.686;9.994;2023-03-24T10:46:21;13.80;;;2.30;;
4377;SDS011;2203;53.686;9.994;2023-03-24T10:48:49;9.27;;;2.30;;
4377;SDS011;2203;53.686;9.994;2023-03-24T10:51:25;13.63;;;3.00;;
4377;SDS011;2203;53.686;9.994;2023-03-24T10:54:08;13.40;;;2.57;;
4377;SDS011;2203;53.686;9.994;2023-03-24T10:56:39;19.30;;;2.20;;
4377;SDS011;2203;53.686;9.994;2023-03-24T11:02:25;11.83;;;2.47;;
4377;SDS011;2203;53.686;9.994;2023-03-24T11:04:53;9.70;;;2.00;;
4377;SDS011;2203;53.686;9.994;2023-03-24T11:07:40;9.57;;;1.93;;
4377;SDS011;2203;53.686;9.994;2023-03-24T11:12:36;9.23;;;2.20;;
4377;SDS011;2203;53.686;9.994;2023-03-24T11:15:20;7.57;;;1.60;;
4377;SDS011;2203;53.686;9.994;2023-03-24T11:17:47;7.73;;;1.93;;
4377;SDS011;2203;53.686;9.994;2023-03-24T11:20:19;16.03;;;2.13;;
4377;SDS011;2203;53.686;9.994;2023-03-24T11:22:59;14.03;;;2.13;;
4377;SDS011;2203;53.686;9.994;2023-03-24T11:25:32;12.03;;;1.83;;
4377;SDS011;2203;53.686;9.994;2023-03-24T11:27:59;20.57;;;2.50;;
4377;SDS011;2203;53.686;9.994;2023-03-24T11:30:28;14.40;;;2.37;;
4377;SDS011;2203;53.686;9.994;2023-03-24T11:32:58;10.77;;;1.93;;
4377;SDS011;2203;53.686;9.994;2023-03-24T11:35:23;14.20;;;2.33;;
4377;SDS011;2203;53.686;9.994;2023-03-24T11:37:49;21.80;;;2.53;;
4377;SDS011;2203;53.686;9.994;2023-03-24T11:42:46;15.67;;;2.10;;
4377;SDS011;2203;53.686;9.994;2023-03-24T11:45:57;18.70;;;2.70;;
4377;SDS011;2203;53.686;9.994;2023-03-24T11:48:13;9.97;;;2.47;;
4377;SDS011;2203;53.686;9.994;2023-03-24T11:50:48;17.00;;;2.50;;
4377;SDS011;2203;53.686;9.994;2023-03-24T11:53:16;9.10;;;1.63;;
4377;SDS011;2203;53.686;9.994;2023-03-24T11:58:46;14.80;;;2.50;;
4377;SDS011;2203;53.686;9.994;2023-03-24T12:01:25;15.27;;;2.30;;
4377;SDS011;2203;53.686;9.994;2023-03-24T12:20:57;15.03;;;3.07;;
4377;SDS011;2203;53.686;9.994;2023-03-24T12:34:24;25.93;;;3.60;;
4377;SDS011;2203;53.686;9.994;2023-03-24T12:39:33;13.10;;;2.83;;
4377;SDS011;2203;53.686;9.994;2023-03-24T12:42:11;24.80;;;2.67;;
4377;SDS011;2203;53.686;9.994;2023-03-24T12:55:45;18.97;;;2.70;;
4377;SDS011;2203;53.686;9.994;2023-03-24T13:03:47;17.20;;;2.83;;
4377;SDS011;2203;53.686;9.994;2023-03-24T13:06:19;11.23;;;2.33;;
4377;SDS011;2203;53.686;9.994;2023-03-24T13:09:36;18.20;;;2.67;;
4377;SDS011;2203;53.686;9.994;2023-03-24T13:11:52;12.50;;;2.33;;
4377;SDS011;2203;53.686;9.994;2023-03-24T13:14:25;16.63;;;2.23;;
4377;SDS011;2203;53.686;9.994;2023-03-24T13:16:55;14.53;;;2.80;;
4377;SDS011;2203;53.686;9.994;2023-03-24T13:19:36;15.57;;;2.90;;
4377;SDS011;2203;53.686;9.994;2023-03-24T13:22:05;15.30;;;2.87;;
4377;SDS011;2203;53.686;9.994;2023-03-24T13:24:36;22.33;;;3.00;;
4377;SDS011;2203;53.686;9.994;2023-03-24T13:27:17;14.13;;;4.00;;
4377;SDS011;2203;53.686;9.994;2023-03-24T13:30:11;14.47;;;2.40;;
4377;SDS011;2203;53.686;9.994;2023-03-24T13:33:24;16.90;;;2.70;;
4377;SDS011;2203;53.686;9.994;2023-03-24T13:41:10;13.73;;;2.40;;
4377;SDS011;2203;53.686;9.994;2023-03-24T13:43:37;13.87;;;2.27;;
4377;SDS011;2203;53.686;9.994;2023-03-24T13:46:14;18.83;;;3.43;;
4377;SDS011;2203;53.686;9.994;2023-03-24T13:48:41;15.37;;;2.27;;
4377;SDS011;2203;53.686;9.994;2023-03-24T13:53:59;12.13;;;2.03;;
4377;SDS011;2203;53.686;9.994;2023-03-24T13:56:33;7.97;;;2.40;;
4377;SDS011;2203;53.686;9.994;2023-03-24T14:07:29;9.70;;;1.90;;
4377;SDS011;2203;53.686;9.994;2023-03-24T14:17:53;19.17;;;2.60;;
4377;SDS011;2203;53.686;9.994;2023-03-24T14:20:27;9.23;;;1.90;;
4377;SDS011;2203;53.686;9.994;2023-03-24T14:22:56;12.10;;;2.10;;
4377;SDS011;2203;53.686;9.994;2023-03-24T14:25:23;11.03;;;2.27;;
4377;SDS011;2203;53.686;9.994;2023-03-24T14:27:51;13.50;;;1.80;;
4377;SDS011;2203;53.686;9.994;2023-03-24T14:30:36;26.20;;;3.10;;
4377;SDS011;2203;53.686;9.994;2023-03-24T14:33:04;10.63;;;2.60;;
4377;SDS011;2203;53.686;9.994;2023-03-24T14:40:38;19.27;;;2.87;;
4377;SDS011;2203;53.686;9.994;2023-03-24T14:45:52;13.27;;;2.30;;
4377;SDS011;2203;53.686;9.994;2023-03-24T14:48:26;6.90;;;1.90;;
4377;SDS011;2203;53.686;9.994;2023-03-24T14:50:53;11.20;;;2.30;;
4377;SDS011;2203;53.686;9.994;2023-03-24T14:53:19;15.00;;;3.10;;
4377;SDS011;2203;53.686;9.994;2023-03-24T14:55:46;16.73;;;2.90;;
4377;SDS011;2203;53.686;9.994;2023-03-24T14:58:26;7.00;;;1.97;;
4377;SDS011;2203;53.686;9.994;2023-03-24T15:00:56;12.83;;;2.43;;
4377;SDS011;2203;53.686;9.994;2023-03-24T15:03:26;9.93;;;2.27;;
4377;SDS011;2203;53.686;9.994;2023-03-24T15:06:30;8.10;;;1.90;;
4377;SDS011;2203;53.686;9.994;2023-03-24T15:08:55;12.40;;;2.47;;
4377;SDS011;2203;53.686;9.994;2023-03-24T15:11:23;15.23;;;2.37;;
4377;SDS011;2203;53.686;9.994;2023-03-24T15:13:54;13.40;;;2.77;;
4377;SDS011;2203;53.686;9.994;2023-03-24T15:16:25;13.40;;;2.60;;
4377;SDS011;2203;53.686;9.994;2023-03-24T15:18:53;10.60;;;1.97;;
4377;SDS011;2203;53.686;9.994;2023-03-24T15:21:32;11.93;;;2.00;;
4377;SDS011;2203;53.686;9.994;2023-03-24T15:24:15;10.17;;;2.50;;
4377;SDS011;2203;53.686;9.994;2023-03-24T15:26:53;8.33;;;2.10;;
4377;SDS011;2203;53.686;9.994;2023-03-24T15:29:20;14.27;;;2.47;;
4377;SDS011;2203;53.686;9.994;2023-03-24T15:31:46;8.17;;;2.07;;
4377;SDS011;2203;53.686;9.994;2023-03-24T15:34:29;14.13;;;2.23;;
4377;SDS011;2203;53.686;9.994;2023-03-24T15:37:04;11.03;;;2.20;;
4377;SDS011;2203;53.686;9.994;2023-03-24T15:39:32;8.17;;;1.90;;
4377;SDS011;2203;53.686;9.994;2023-03-24T15:42:03;7.87;;;2.43;;
4377;SDS011;2203;53.686;9.994;2023-03-24T15:44:29;11.33;;;2.53;;
4377;SDS011;2203;53.686;9.994;2023-03-24T15:46:57;10.90;;;2.47;;
4377;SDS011;2203;53.686;9.994;2023-03-24T15:49:33;11.10;;;2.20;;
4377;SDS011;2203;53.686;9.994;2023-03-24T15:54:30;7.40;;;1.77;;
4377;SDS011;2203;53.686;9.994;2023-03-24T15:57:12;9.33;;;2.07;;
4377;SDS011;2203;53.686;9.994;2023-03-24T15:59:41;13.27;;;2.30;;
4377;SDS011;2203;53.686;9.994;2023-03-24T16:02:10;12.83;;;2.10;;
4377;SDS011;2203;53.686;9.994;2023-03-24T16:05:03;12.00;;;2.20;;
4377;SDS011;2203;53.686;9.994;2023-03-24T16:07:34;12.70;;;2.00;;
4377;SDS011;2203;53.686;9.994;2023-03-24T16:10:00;15.40;;;2.67;;
4377;SDS011;2203;53.686;9.994;2023-03-24T16:12:36;8.67;;;1.80;;
4377;SDS011;2203;53.686;9.994;2023-03-24T16:15:02;7.20;;;1.90;;
4377;SDS011;2203;53.686;9.994;2023-03-24T16:17:30;6.23;;;1.50;;
4377;SDS011;2203;53.686;9.994;2023-03-24T16:19:56;9.93;;;2.20;;
4377;SDS011;2203;53.686;9.994;2023-03-24T16:22:21;6.23;;;1.50;;
4377;SDS011;2203;53.686;9.994;2023-03-24T16:24:49;6.13;;;1.63;;
4377;SDS011;2203;53.686;9.994;2023-03-24T16:27:18;10.30;;;2.23;;
4377;SDS011;2203;53.686;9.994;2023-03-24T16:29:43;11.80;;;2.70;;
4377;SDS011;2203;53.686;9.994;2023-03-24T16:32:09;10.70;;;1.90;;
4377;SDS011;2203;53.686;9.994;2023-03-24T16:34:34;12.60;;;1.93;;
4377;SDS011;2203;53.686;9.994;2023-03-24T16:37:00;11.07;;;2.03;;
4377;SDS011;2203;53.686;9.994;2023-03-24T16:39:27;10.23;;;2.27;;
4377;SDS011;2203;53.686;9.994;2023-03-24T16:41:53;9.40;;;2.40;;
4377;SDS011;2203;53.686;9.994;2023-03-24T16:44:19;15.87;;;2.80;;
4377;SDS011;2203;53.686;9.994;2023-03-24T16:46:45;15.97;;;2.53;;
4377;SDS011;2203;53.686;9.994;2023-03-24T16:49:12;9.57;;;1.90;;
4377;SDS011;2203;53.686;9.994;2023-03-24T16:51:39;10.10;;;1.60;;
4377;SDS011;2203;53.686;9.994;2023-03-24T16:54:05;12.30;;;2.07;;
4377;SDS011;2203;53.686;9.994;2023-03-24T16:56:31;7.40;;;2.10;;
4377;SDS011;2203;53.686;9.994;2023-03-24T16:58:57;11.40;;;2.77;;
4377;SDS011;2203;53.686;9.994;2023-03-24T17:04:10;14.20;;;1.93;;
4377;SDS011;2203;53.686;9.994;2023-03-24T17:06:41;6.10;;;1.83;;
4377;SDS011;2203;53.686;9.994;2023-03-24T17:09:09;12.07;;;2.47;;
4377;SDS011;2203;53.686;9.994;2023-03-24T17:11:35;11.53;;;2.40;;
4377;SDS011;2203;53.686;9.994;2023-03-24T17:14:03;20.13;;;2.63;;
4377;SDS011;2203;53.686;9.994;2023-03-24T17:16:31;12.67;;;2.30;;
4377;SDS011;2203;53.686;9.994;2023-03-24T17:19:04;8.73;;;2.00;;
4377;SDS011;2203;53.686;9.994;2023-03-24T17:21:30;18.87;;;2.37;;
4377;SDS011;2203;53.686;9.994;2023-03-24T17:23:57;7.50;;;1.97;;
4377;SDS011;2203;53.686;9.994;2023-03-24T17:26:23;18.60;;;4.10;;
4377;SDS011;2203;53.686;9.994;2023-03-24T17:28:49;14.13;;;2.43;;
4377;SDS011;2203;53.686;9.994;2023-03-24T17:31:14;15.07;;;2.20;;
4377;SDS011;2203;53.686;9.994;2023-03-24T17:33:40;16.80;;;2.67;;
4377;SDS011;2203;53.686;9.994;2023-03-24T17:36:06;10.93;;;2.23;;
4377;SDS011;2203;53.686;9.994;2023-03-24T17:38:31;16.77;;;2.47;;
4377;SDS011;2203;53.686;9.994;2023-03-24T17:40:58;11.30;;;1.90;;
4377;SDS011;2203;53.686;9.994;2023-03-24T17:43:27;12.80;;;2.70;;
4377;SDS011;2203;53.686;9.994;2023-03-24T17:45:56;10.97;;;2.37;;
4377;SDS011;2203;53.686;9.994;2023-03-24T17:48:22;15.47;;;2.60;;
4377;SDS011;2203;53.686;9.994;2023-03-24T17:50:48;13.07;;;2.43;;
4377;SDS011;2203;53.686;9.994;2023-03-24T17:53:14;7.53;;;2.00;;
4377;SDS011;2203;53.686;9.994;2023-03-24T17:55:57;9.20;;;1.80;;
4377;SDS011;2203;53.686;9.994;2023-03-24T17:58:23;10.37;;;2.13;;
4377;SDS011;2203;53.686;9.994;2023-03-24T18:00:51;11.67;;;2.20;;
4377;SDS011;2203;53.686;9.994;2023-03-24T18:03:17;6.27;;;1.90;;
4377;SDS011;2203;53.686;9.994;2023-03-24T18:05:42;8.63;;;1.87;;
4377;SDS011;2203;53.686;9.994;2023-03-24T18:08:08;19.20;;;4.33;;